Time;durP1;ratioP1;P1;durP2;ratioP2;P2;SDS_P1;SDS_P2;PMS_P1;PMS_P2;Temp;Humidity;BMP_temperature;BMP_pressure;BME280_temperature;BME280_humidity;BME280_pressure;Samples;Min_cycle;Max_cycle;Signal;HPM_P1;HPM_P2
2023/02/07 00:00:04;;;;;;;23.83;10.63;;;-6.90;99.90;;;;;;5053606;28;20128;-61
2023/02/07 00:02:30;;;;;;;24.73;10.77;;;-6.90;99.90;;;;;;5089509;28;20027;-61
2023/02/07 00:04:55;;;;;;;25.33;11.80;;;-7.00;99.90;;;;;;5058872;28;20387;-61
2023/02/07 00:07:21;;;;;;;28.10;12.60;;;-7.00;99.90;;;;;;5090417;28;20028;-62
2023/02/07 00:09:46;;;;;;;17.37;9.67;;;-7.00;99.90;;;;;;5067070;28;20040;-62
2023/02/07 00:12:12;;;;;;;22.90;10.03;;;-7.00;99.90;;;;;;5103973;28;20032;-62
2023/02/07 00:14:37;;;;;;;29.90;12.53;;;-7.00;99.90;;;;;;5056918;28;20111;-61
2023/02/07 00:17:03;;;;;;;26.53;11.83;;;-7.10;99.90;;;;;;5088678;28;20109;-62
2023/02/07 00:19:28;;;;;;;28.80;12.87;;;-7.10;99.90;;;;;;5078472;28;20036;-61
2023/02/07 00:21:54;;;;;;;26.23;11.70;;;-7.10;99.90;;;;;;5070021;28;20090;-62
2023/02/07 00:24:19;;;;;;;19.40;9.40;;;-7.10;99.90;;;;;;5087250;28;20031;-61
2023/02/07 00:26:46;;;;;;;21.33;10.03;;;-7.10;99.90;;;;;;5069925;28;20028;-61
2023/02/07 00:29:12;;;;;;;30.03;11.03;;;-7.10;99.90;;;;;;5086785;28;20048;-61
2023/02/07 00:31:39;;;;;;;26.03;9.97;;;-7.20;99.90;;;;;;5069925;28;20301;-61
2023/02/07 00:34:06;;;;;;;21.53;10.40;;;-7.20;99.90;;;;;;5086230;28;20111;-61
2023/02/07 00:36:33;;;;;;;25.43;9.70;;;-7.20;99.90;;;;;;5088701;28;20020;-61
2023/02/07 00:39:01;;;;;;;15.23;7.70;;;-7.20;99.90;;;;;;5073411;28;20017;-61
2023/02/07 00:41:28;;;;;;;22.00;9.47;;;-7.20;99.90;;;;;;5089154;28;20028;-61
2023/02/07 00:43:54;;;;;;;20.90;8.40;;;-7.30;99.90;;;;;;5071784;28;20114;-61
2023/02/07 00:46:20;;;;;;;15.30;8.03;;;-7.30;99.90;;;;;;5089420;28;20124;-61
2023/02/07 00:48:45;;;;;;;26.10;9.50;;;-7.30;99.90;;;;;;5071325;28;20047;-61
2023/02/07 00:51:12;;;;;;;15.67;7.63;;;-7.30;99.90;;;;;;5088977;28;20020;-61
2023/02/07 00:53:38;;;;;;;18.60;7.57;;;-7.30;99.90;;;;;;5070511;28;20138;-60
2023/02/07 00:56:04;;;;;;;21.33;9.80;;;-7.30;99.90;;;;;;5089155;28;20372;-61
2023/02/07 00:58:30;;;;;;;18.23;8.97;;;-7.40;99.90;;;;;;5069352;28;20074;-61
2023/02/07 01:00:56;;;;;;;20.10;7.77;;;-7.40;99.90;;;;;;5088986;28;20556;-61
2023/02/07 01:03:21;;;;;;;20.20;8.40;;;-7.40;99.90;;;;;;5067021;28;20048;-60
2023/02/07 01:05:47;;;;;;;18.20;7.43;;;-7.40;99.90;;;;;;5071703;28;20043;-61
2023/02/07 01:08:12;;;;;;;24.17;10.20;;;-7.40;99.90;;;;;;5087891;28;20518;-61
2023/02/07 01:10:39;;;;;;;20.40;9.20;;;-7.40;99.90;;;;;;5084805;28;22690;-61
2023/02/07 01:13:05;;;;;;;21.13;8.73;;;-7.40;99.90;;;;;;5088912;28;20054;-61
2023/02/07 01:15:34;;;;;;;15.73;7.57;;;-7.40;99.90;;;;;;5068539;28;20063;-61
2023/02/07 01:18:00;;;;;;;13.43;7.27;;;-7.40;99.90;;;;;;5088738;28;20024;-62
2023/02/07 01:20:27;;;;;;;14.13;6.77;;;-7.40;99.90;;;;;;5067567;28;20066;-61
2023/02/07 01:22:52;;;;;;;12.73;6.43;;;-7.40;99.90;;;;;;5088816;28;20040;-61
2023/02/07 01:25:18;;;;;;;10.87;5.77;;;-7.40;99.90;;;;;;5068867;28;20389;-61
2023/02/07 01:27:44;;;;;;;13.43;6.57;;;-7.40;99.90;;;;;;5084374;28;20037;-61
2023/02/07 01:30:10;;;;;;;17.27;7.77;;;-7.50;99.90;;;;;;5068515;28;20060;-61
2023/02/07 01:32:35;;;;;;;10.73;6.17;;;-7.50;99.90;;;;;;5072833;28;20032;-61
2023/02/07 01:35:01;;;;;;;17.13;7.37;;;-7.50;99.90;;;;;;5068364;28;20086;-61
2023/02/07 01:37:26;;;;;;;8.97;4.77;;;-7.50;99.90;;;;;;5085221;28;20059;-60
2023/02/07 01:39:52;;;;;;;17.77;8.10;;;-7.50;99.90;;;;;;5088499;28;20171;-61
2023/02/07 01:42:19;;;;;;;14.30;5.90;;;-7.50;99.90;;;;;;5072036;28;20024;-61
2023/02/07 01:44:44;;;;;;;11.93;6.53;;;-7.60;99.90;;;;;;5088282;28;20273;-61
2023/02/07 01:47:16;;;;;;;14.23;6.87;;;-7.60;99.90;;;;;;5070941;28;20273;-61
2023/02/07 01:49:42;;;;;;;13.70;6.70;;;-7.60;99.90;;;;;;5088304;28;20561;-61
2023/02/07 01:52:19;;;;;;;14.13;6.43;;;-7.60;99.90;;;;;;5070496;28;20055;-60
2023/02/07 01:54:48;;;;;;;15.40;6.03;;;-7.60;99.90;;;;;;5088315;28;20039;-61
2023/02/07 01:57:18;;;;;;;14.53;6.77;;;-7.60;99.90;;;;;;5069626;28;20031;-61
2023/02/07 01:59:44;;;;;;;16.87;6.97;;;-7.70;99.90;;;;;;5088233;28;20028;-61
2023/02/07 02:02:15;;;;;;;9.77;4.83;;;-7.60;99.90;;;;;;5070799;28;20032;-61
2023/02/07 02:04:41;;;;;;;18.03;7.57;;;-7.70;99.90;;;;;;5085716;28;20071;-61
2023/02/07 02:07:08;;;;;;;19.10;7.33;;;-7.70;99.90;;;;;;5067250;28;20052;-61
2023/02/07 02:09:36;;;;;;;13.77;6.40;;;-7.70;99.90;;;;;;5088254;28;20024;-61
2023/02/07 02:12:23;;;;;;;16.17;6.93;;;-7.70;99.90;;;;;;5067828;28;20031;-61
2023/02/07 02:15:15;;;;;;;13.57;6.30;;;-7.70;99.90;;;;;;5088533;28;20024;-61
2023/02/07 02:18:04;;;;;;;15.73;5.70;;;-7.80;99.90;;;;;;5044048;28;20535;-61
2023/02/07 02:20:42;;;;;;;11.07;5.37;;;-7.80;99.90;;;;;;5030330;28;20048;-60
2023/02/07 02:23:32;;;;;;;15.67;5.93;;;-7.80;99.90;;;;;;5070585;28;20115;-62
2023/02/07 02:26:13;;;;;;;14.97;5.77;;;-7.80;99.90;;;;;;5056503;28;20401;-61
2023/02/07 02:29:01;;;;;;;12.57;5.40;;;-7.80;99.90;;;;;;5073123;28;20381;-61
2023/02/07 02:31:48;;;;;;;10.47;5.57;;;-7.80;99.90;;;;;;5047681;28;20033;-60
2023/02/07 02:34:28;;;;;;;13.83;6.10;;;-7.90;99.90;;;;;;5047675;28;20021;-61
2023/02/07 02:37:18;;;;;;;10.90;5.33;;;-7.90;99.90;;;;;;5052424;28;20039;-61
2023/02/07 02:39:55;;;;;;;8.33;4.97;;;-7.90;99.90;;;;;;5091735;28;20016;-61
2023/02/07 02:42:45;;;;;;;19.77;7.23;;;-7.90;99.90;;;;;;5060895;28;20093;-61
2023/02/07 02:45:24;;;;;;;18.20;8.30;;;-7.90;99.90;;;;;;5091485;28;20024;-61
2023/02/07 02:47:51;;;;;;;18.80;6.50;;;-7.90;99.90;;;;;;5068958;28;20032;-62
2023/02/07 02:50:31;;;;;;;13.03;6.23;;;-7.90;99.90;;;;;;5071548;28;20060;-61
2023/02/07 02:52:57;;;;;;;17.00;7.47;;;-7.90;99.90;;;;;;5088801;28;20117;-61
2023/02/07 02:55:52;;;;;;;13.13;5.47;;;-7.90;99.90;;;;;;5071563;28;20040;-61
2023/02/07 02:58:33;;;;;;;20.15;8.20;;;-7.90;99.90;;;;;;5076603;28;20048;-61
2023/02/07 03:01:32;;;;;;;12.93;6.50;;;-8.00;99.90;;;;;;5050871;28;20253;-61
2023/02/07 03:04:29;;;;;;;10.63;5.27;;;-8.00;99.90;;;;;;5068199;28;20032;-61
2023/02/07 03:07:19;;;;;;;13.15;5.45;;;-8.00;99.90;;;;;;5050110;28;20036;-55
2023/02/07 03:10:06;;;;;;;12.40;6.33;;;-8.00;99.90;;;;;;5091107;28;20043;-57
2023/02/07 03:12:45;;;;;;;12.43;5.80;;;-8.10;99.90;;;;;;5063256;28;20032;-57
2023/02/07 03:15:48;;;;;;;18.67;6.87;;;-8.00;99.90;;;;;;5090926;28;20519;-62
2023/02/07 03:18:20;;;;;;;15.50;6.80;;;-8.10;99.90;;;;;;5069127;28;20221;-62
2023/02/07 03:21:02;;;;;;;14.20;5.77;;;-8.10;99.90;;;;;;5050671;28;20051;-61
2023/02/07 03:23:29;;;;;;;14.40;5.50;;;-8.10;99.90;;;;;;5063473;28;20029;-62
2023/02/07 03:25:58;;;;;;;16.87;6.53;;;-8.10;99.90;;;;;;5090064;28;20028;-62
2023/02/07 03:28:25;;;;;;;23.47;7.97;;;-8.10;99.90;;;;;;5075864;28;20134;-61
2023/02/07 03:30:55;;;;;;;13.87;6.60;;;-8.20;99.90;;;;;;5070660;28;20036;-61
2023/02/07 03:33:24;;;;;;;14.10;6.30;;;-8.10;99.90;;;;;;5074432;28;20037;-62
2023/02/07 03:36:01;;;;;;;14.63;6.97;;;-8.10;99.90;;;;;;5090221;28;20028;-61
2023/02/07 03:38:27;;;;;;;14.53;6.47;;;-8.10;99.90;;;;;;5063149;28;20028;-61
2023/02/07 03:40:58;;;;;;;13.87;7.07;;;-8.10;99.90;;;;;;5089619;28;20039;-61
2023/02/07 03:43:27;;;;;;;11.40;5.77;;;-8.10;99.90;;;;;;5062607;28;20114;-62
2023/02/07 03:45:52;;;;;;;19.53;8.73;;;-8.10;99.90;;;;;;5090036;28;20028;-62
2023/02/07 03:48:18;;;;;;;13.47;6.47;;;-8.10;99.90;;;;;;5068600;28;20051;-61
2023/02/07 03:50:44;;;;;;;13.77;6.80;;;-8.10;99.90;;;;;;5087922;28;20036;-62
2023/02/07 03:53:09;;;;;;;13.37;5.90;;;-8.20;99.90;;;;;;5068512;28;20037;-61
2023/02/07 03:55:35;;;;;;;13.63;6.90;;;-8.20;99.90;;;;;;5088017;28;20024;-61
2023/02/07 03:58:00;;;;;;;12.73;6.47;;;-8.20;99.90;;;;;;5063688;28;20401;-62
2023/02/07 04:00:26;;;;;;;18.73;8.83;;;-8.20;99.90;;;;;;5087779;28;20488;-61
2023/02/07 04:02:52;;;;;;;17.33;7.67;;;-8.20;99.90;;;;;;5078269;28;20110;-61
2023/02/07 04:05:18;;;;;;;17.40;7.40;;;-8.20;99.90;;;;;;5072401;28;20032;-61
2023/02/07 04:07:44;;;;;;;19.30;8.77;;;-8.30;99.90;;;;;;5087640;28;20035;-62
2023/02/07 04:10:10;;;;;;;17.73;8.10;;;-8.20;99.90;;;;;;5069786;28;20082;-61
2023/02/07 04:12:36;;;;;;;20.17;8.40;;;-8.30;99.90;;;;;;5087117;28;20042;-61
2023/02/07 04:15:03;;;;;;;15.83;7.07;;;-8.30;99.90;;;;;;5070011;28;20095;-62
2023/02/07 04:17:28;;;;;;;18.47;8.00;;;-8.30;99.90;;;;;;5086954;28;20055;-61
2023/02/07 04:19:54;;;;;;;19.30;7.57;;;-8.30;99.90;;;;;;5089447;28;20060;-61
2023/02/07 04:22:19;;;;;;;21.70;9.27;;;-8.30;99.90;;;;;;5073490;28;20039;-62
2023/02/07 04:24:46;;;;;;;15.27;6.97;;;-8.30;99.90;;;;;;5088007;28;20437;-61
2023/02/07 04:27:11;;;;;;;19.80;8.70;;;-8.30;99.90;;;;;;5076481;28;20225;-62
2023/02/07 04:29:37;;;;;;;20.07;9.37;;;-8.30;99.90;;;;;;5069731;28;20547;-62
2023/02/07 04:32:02;;;;;;;18.17;7.83;;;-8.30;99.90;;;;;;5086792;28;20135;-62
2023/02/07 04:34:28;;;;;;;17.47;7.87;;;-8.30;99.90;;;;;;5069751;28;20707;-61
2023/02/07 04:36:53;;;;;;;14.83;6.77;;;-8.30;99.90;;;;;;5086578;28;20031;-61
2023/02/07 04:39:19;;;;;;;15.67;8.43;;;-8.30;99.90;;;;;;5089730;28;20036;-62
2023/02/07 04:41:45;;;;;;;20.50;8.17;;;-8.30;99.90;;;;;;5073025;28;20059;-62
2023/02/07 04:44:10;;;;;;;22.20;9.70;;;-8.30;99.90;;;;;;5089415;28;20024;-62
2023/02/07 04:46:36;;;;;;;14.03;7.03;;;-8.30;99.90;;;;;;5071937;28;20047;-61
2023/02/07 04:49:02;;;;;;;13.30;7.33;;;-8.30;99.90;;;;;;5089236;28;20032;-62
2023/02/07 04:51:28;;;;;;;15.50;7.70;;;-8.30;99.90;;;;;;5070391;28;20027;-61
2023/02/07 04:53:55;;;;;;;17.03;7.77;;;-8.30;99.90;;;;;;5089378;28;20012;-62
2023/02/07 04:56:21;;;;;;;16.50;7.20;;;-8.30;99.90;;;;;;5065710;28;20396;-61
2023/02/07 04:58:46;;;;;;;18.43;8.93;;;-8.30;99.90;;;;;;5068394;28;20028;-61
2023/02/07 05:01:12;;;;;;;17.10;7.83;;;-8.40;99.90;;;;;;5068723;28;20031;-62
2023/02/07 05:03:37;;;;;;;16.63;7.73;;;-8.40;99.90;;;;;;5088428;28;20407;-61
2023/02/07 05:06:03;;;;;;;22.87;10.30;;;-8.40;99.90;;;;;;5061781;28;20056;-55
2023/02/07 05:08:28;;;;;;;16.93;8.73;;;-8.40;99.90;;;;;;5088015;28;20105;-57
2023/02/07 05:14:16;;;;;;;18.20;8.73;;;-8.40;99.90;;;;;;5067730;28;20035;-58
2023/02/07 05:16:41;;;;;;;16.97;7.93;;;-8.40;99.90;;;;;;5089055;28;20031;-58
2023/02/07 05:19:07;;;;;;;15.23;7.13;;;-8.40;99.90;;;;;;5067929;28;20032;-58
2023/02/07 05:21:32;;;;;;;13.93;6.83;;;-8.40;99.90;;;;;;5104652;28;20077;-58
2023/02/07 05:23:58;;;;;;;17.47;7.70;;;-8.40;99.90;;;;;;5069334;28;20114;-60
2023/02/07 05:26:23;;;;;;;19.33;8.73;;;-8.40;99.90;;;;;;5086053;28;20028;-57
2023/02/07 05:28:49;;;;;;;15.90;7.50;;;-8.40;99.90;;;;;;5067744;28;20057;-58
2023/02/07 05:31:14;;;;;;;19.93;8.63;;;-8.40;99.90;;;;;;5068164;28;20090;-58
2023/02/07 05:33:40;;;;;;;18.33;8.60;;;-8.40;99.90;;;;;;5087960;28;20032;-58
2023/02/07 05:36:06;;;;;;;18.87;7.73;;;-8.40;99.90;;;;;;5067428;28;20033;-56
2023/02/07 05:38:32;;;;;;;22.57;9.53;;;-8.40;99.90;;;;;;5086614;28;20024;-54
2023/02/07 05:40:57;;;;;;;20.60;8.87;;;-8.40;99.90;;;;;;5070047;28;20420;-56
2023/02/07 05:43:23;;;;;;;20.53;9.53;;;-8.50;99.90;;;;;;5088639;28;20093;-57
2023/02/07 05:45:48;;;;;;;17.17;7.87;;;-8.50;99.90;;;;;;5066043;28;20047;-56
2023/02/07 05:48:14;;;;;;;23.77;10.53;;;-8.50;99.90;;;;;;5080666;28;20036;-57
2023/02/07 05:50:39;;;;;;;22.13;9.63;;;-8.50;99.90;;;;;;5066379;28;20040;-57
2023/02/07 05:53:06;;;;;;;16.07;8.17;;;-8.50;99.90;;;;;;5068013;28;20400;-57
2023/02/07 05:55:32;;;;;;;25.27;9.17;;;-8.50;99.90;;;;;;5067549;28;20025;-54
2023/02/07 05:57:57;;;;;;;22.73;8.90;;;-8.50;99.90;;;;;;5087363;28;20043;-57
2023/02/07 06:00:23;;;;;;;17.70;9.20;;;-8.50;99.90;;;;;;5049854;28;20445;-55
2023/02/07 06:02:48;;;;;;;21.27;9.37;;;-8.50;99.90;;;;;;5087146;28;20522;-54
2023/02/07 06:05:17;;;;;;;21.50;11.13;;;-8.50;99.90;;;;;;5066124;28;20028;-58
2023/02/07 06:07:43;;;;;;;20.97;10.50;;;-8.50;99.90;;;;;;5088230;28;20320;-55
2023/02/07 06:10:10;;;;;;;22.53;9.97;;;-8.50;99.90;;;;;;5066102;28;20024;-57
2023/02/07 06:12:35;;;;;;;20.03;9.30;;;-8.50;99.90;;;;;;5084260;28;20033;-58
2023/02/07 06:15:01;;;;;;;19.43;8.43;;;-8.50;99.90;;;;;;5083996;28;20584;-54
2023/02/07 06:17:26;;;;;;;18.20;8.63;;;-8.50;99.90;;;;;;5070355;28;20039;-58
2023/02/07 06:19:52;;;;;;;18.40;7.93;;;-8.50;99.90;;;;;;5091426;28;20111;-57
2023/02/07 06:22:17;;;;;;;18.33;7.90;;;-8.50;99.90;;;;;;5069751;28;20056;-59
2023/02/07 06:24:43;;;;;;;23.30;8.60;;;-8.50;99.90;;;;;;5090494;28;20256;-57
2023/02/07 06:27:10;;;;;;;14.03;7.03;;;-8.50;99.90;;;;;;5075280;28;20127;-57
2023/02/07 06:29:35;;;;;;;14.87;7.43;;;-8.50;99.90;;;;;;5091522;28;20052;-58
2023/02/07 06:32:01;;;;;;;13.70;6.83;;;-8.50;99.90;;;;;;5075573;28;20039;-58
2023/02/07 06:34:27;;;;;;;19.43;7.33;;;-8.50;99.90;;;;;;5090048;28;20028;-58
2023/02/07 06:36:52;;;;;;;19.13;9.07;;;-8.50;99.90;;;;;;5073037;28;20032;-58
2023/02/07 06:39:18;;;;;;;17.60;8.03;;;-8.50;99.90;;;;;;5091555;28;20028;-57
2023/02/07 06:41:43;;;;;;;20.30;8.43;;;-8.50;99.90;;;;;;5072800;28;20024;-58
2023/02/07 06:44:09;;;;;;;21.83;8.13;;;-8.50;99.90;;;;;;5091276;28;20028;-57
2023/02/07 06:46:34;;;;;;;16.77;7.03;;;-8.50;99.90;;;;;;5071836;28;20051;-57
2023/02/07 06:49:00;;;;;;;17.63;6.80;;;-8.50;99.90;;;;;;5089862;28;20495;-58
2023/02/07 06:51:25;;;;;;;16.83;7.00;;;-8.40;99.90;;;;;;5070267;28;20036;-58
2023/02/07 06:53:51;;;;;;;20.97;7.50;;;-8.40;99.90;;;;;;5091355;28;20040;-58
2023/02/07 06:56:16;;;;;;;16.43;7.20;;;-8.40;99.90;;;;;;5071371;28;20036;-58
2023/02/07 06:58:42;;;;;;;15.70;7.07;;;-8.40;99.90;;;;;;5087338;28;20637;-58
2023/02/07 07:01:08;;;;;;;20.57;8.10;;;-8.40;99.90;;;;;;5071319;28;20024;-58
2023/02/07 07:03:33;;;;;;;16.37;7.37;;;-8.30;99.90;;;;;;5069937;28;20020;-58
2023/02/07 07:05:59;;;;;;;18.20;7.73;;;-8.30;99.90;;;;;;5084936;28;20024;-58
2023/02/07 07:08:26;;;;;;;18.43;7.93;;;-8.20;99.90;;;;;;5068229;28;20500;-58
2023/02/07 07:10:52;;;;;;;23.63;8.00;;;-8.20;99.90;;;;;;5090640;28;20020;-58
2023/02/07 07:13:17;;;;;;;23.97;8.93;;;-8.20;99.90;;;;;;5069528;28;20040;-57
2023/02/07 07:15:43;;;;;;;22.10;7.97;;;-8.10;99.90;;;;;;5090373;28;20750;-68
2023/02/07 07:18:09;;;;;;;21.60;8.43;;;-8.10;99.90;;;;;;5069451;28;20035;-68
2023/02/07 07:20:34;;;;;;;21.87;8.53;;;-8.10;99.90;;;;;;5090435;28;20039;-68
2023/02/07 07:23:00;;;;;;;22.43;10.47;;;-8.00;99.90;;;;;;5055236;28;20036;-68
2023/02/07 07:25:25;;;;;;;19.63;7.77;;;-7.90;99.90;;;;;;5089852;28;20055;-67
2023/02/07 07:27:52;;;;;;;27.37;9.70;;;-7.80;99.90;;;;;;5073694;28;20490;-68
2023/02/07 07:30:17;;;;;;;28.93;10.37;;;-7.70;99.90;;;;;;5090974;28;20111;-68
2023/02/07 07:32:43;;;;;;;27.83;10.37;;;-7.60;99.90;;;;;;5057738;28;20603;-68
2023/02/07 07:35:08;;;;;;;33.80;10.83;;;-7.50;99.90;;;;;;5089385;28;20036;-68
2023/02/07 07:37:34;;;;;;;29.63;10.43;;;-7.40;99.90;;;;;;5059029;28;20075;-68
2023/02/07 07:39:59;;;;;;;41.10;13.07;;;-7.30;99.90;;;;;;5089226;28;20039;-68
2023/02/07 07:42:25;;;;;;;36.03;13.37;;;-7.10;99.90;;;;;;5059964;28;20476;-68
2023/02/07 07:44:50;;;;;;;35.17;12.83;;;-7.00;99.90;;;;;;5089419;28;20087;-68
2023/02/07 07:47:17;;;;;;;43.57;14.07;;;-6.80;99.90;;;;;;5068823;28;20083;-68
2023/02/07 07:49:43;;;;;;;47.38;16.92;;;-6.60;99.90;;;;;;5105434;28;20411;-68
2023/02/07 07:52:08;;;;;;;51.92;17.55;;;-6.50;99.90;;;;;;5068803;28;20029;-68
2023/02/07 07:54:34;;;;;;;46.15;16.30;;;-6.30;99.90;;;;;;5070184;28;20099;-68
2023/02/07 07:56:59;;;;;;;46.40;17.48;;;-6.10;99.90;;;;;;5081921;28;20399;-68
2023/02/07 07:59:25;;;;;;;49.13;17.58;;;-6.00;99.90;;;;;;5069997;28;20036;-68
2023/02/07 08:01:51;;;;;;;45.20;17.30;;;-5.90;99.90;;;;;;5083346;28;20058;-67
2023/02/07 08:04:16;;;;;;;41.60;16.77;;;-5.70;99.90;;;;;;5070022;28;20388;-68
2023/02/07 08:06:41;;;;;;;40.13;15.93;;;-5.60;99.90;;;;;;5075673;28;20400;-65
2023/02/07 08:09:07;;;;;;;44.95;17.63;;;-5.40;99.90;;;;;;5065298;28;20021;-65
2023/02/07 08:11:32;;;;;;;42.00;16.77;;;-5.30;99.90;;;;;;5100541;28;20496;-65
2023/02/07 08:13:58;;;;;;;30.40;13.63;;;-5.20;99.90;;;;;;5085422;28;20013;-66
2023/02/07 08:16:23;;;;;;;30.45;14.00;;;-5.00;99.90;;;;;;5086412;28;20032;-66
2023/02/07 08:18:49;;;;;;;31.00;13.32;;;-4.80;99.90;;;;;;5049880;28;20060;-66
2023/02/07 08:21:14;;;;;;;31.75;14.75;;;-4.60;99.90;;;;;;5104115;28;20030;-66
2023/02/07 08:23:40;;;;;;;30.80;13.35;;;-4.40;99.90;;;;;;5048947;28;20033;-66
2023/02/07 08:26:06;;;;;;;29.45;13.10;;;-4.20;99.90;;;;;;5088442;28;20403;-66
2023/02/07 08:28:32;;;;;;;24.98;12.25;;;-3.90;99.90;;;;;;5069769;28;20468;-66
2023/02/07 08:31:00;;;;;;;23.95;12.85;;;-3.60;99.90;;;;;;5068570;28;20086;-66
2023/02/07 08:33:25;;;;;;;27.05;13.13;;;-3.30;99.90;;;;;;5051898;28;20494;-65
2023/02/07 08:35:50;;;;;;;25.08;13.25;;;-3.10;99.90;;;;;;5088373;28;20107;-66
2023/02/07 08:38:16;;;;;;;29.20;13.13;;;-2.80;99.90;;;;;;5052025;28;20493;-66
2023/02/07 08:40:41;;;;;;;28.67;13.85;;;-2.50;99.90;;;;;;5088053;28;20051;-66
2023/02/07 08:43:11;;;;;;;24.35;13.18;;;-2.30;99.90;;;;;;5053130;28;20107;-66
2023/02/07 08:45:37;;;;;;;26.63;12.93;;;-2.00;99.90;;;;;;5089226;28;20024;-66
2023/02/07 08:48:03;;;;;;;24.60;13.75;;;-1.80;99.90;;;;;;5067650;28;20029;-65
2023/02/07 08:50:28;;;;;;;29.05;15.32;;;-1.60;99.90;;;;;;5088392;28;20032;-65
2023/02/07 08:52:54;;;;;;;23.67;13.95;;;-1.40;99.90;;;;;;5063055;28;20033;-65
2023/02/07 08:55:19;;;;;;;31.17;15.90;;;-1.20;99.90;;;;;;5088022;28;20514;-65
2023/02/07 08:57:45;;;;;;;28.25;13.73;;;-1.00;99.90;;;;;;5066116;28;20094;-65
2023/02/07 09:00:11;;;;;;;26.88;15.05;;;-0.70;99.90;;;;;;5088348;28;20038;-67
2023/02/07 09:02:36;;;;;;;27.20;15.38;;;-0.50;99.90;;;;;;5067635;28;20495;-66
2023/02/07 09:05:02;;;;;;;28.90;14.10;;;-0.30;99.90;;;;;;5079220;28;20043;-66
2023/02/07 09:07:27;;;;;;;28.98;14.80;;;-0.20;99.90;;;;;;5066869;28;20511;-66
2023/02/07 09:09:53;;;;;;;24.88;14.35;;;0.00;99.90;;;;;;5088142;28;20119;-66
2023/02/07 09:12:18;;;;;;;24.90;14.15;;;0.20;99.90;;;;;;5067484;28;20472;-68
2023/02/07 09:14:44;;;;;;;26.85;14.52;;;0.30;99.90;;;;;;5088110;28;20054;-67
2023/02/07 09:17:09;;;;;;;26.98;15.07;;;0.50;99.90;;;;;;5060382;28;20028;-67
2023/02/07 09:19:35;;;;;;;28.60;14.80;;;0.70;99.90;;;;;;5048780;28;20024;-68
2023/02/07 09:22:01;;;;;;;26.90;14.52;;;0.80;99.90;;;;;;5079747;28;20020;-67
2023/02/07 09:24:27;;;;;;;28.65;15.18;;;1.00;99.90;;;;;;5068603;28;20036;-67
2023/02/07 09:26:52;;;;;;;25.67;14.25;;;1.20;99.90;;;;;;5081550;28;20035;-67
2023/02/07 09:29:18;;;;;;;23.52;14.60;;;1.30;99.90;;;;;;5068360;28;20538;-67
2023/02/07 09:31:43;;;;;;;24.73;14.25;;;1.40;99.90;;;;;;5079199;28;20055;-67
2023/02/07 09:34:09;;;;;;;25.77;14.30;;;1.50;99.90;;;;;;5048465;28;20036;-68
2023/02/07 09:36:35;;;;;;;28.42;14.23;;;1.60;99.90;;;;;;5098902;28;20028;-67
2023/02/07 09:39:02;;;;;;;27.58;15.35;;;1.60;99.90;;;;;;5068549;28;20503;-67
2023/02/07 09:41:51;;;;;;;25.15;13.90;;;1.70;99.90;;;;;;5083667;28;20677;-67
2023/02/07 09:44:38;;;;;;;28.75;14.85;;;1.70;99.30;;;;;;5048823;28;20056;-65
2023/02/07 09:47:09;;;;;;;29.00;15.27;;;1.80;98.50;;;;;;5056916;28;20017;-65
2023/02/07 09:49:42;;;;;;;24.58;13.23;;;1.80;99.20;;;;;;5072658;28;20060;-65
2023/02/07 09:52:17;;;;;;;27.55;14.60;;;1.90;97.50;;;;;;5057311;28;20052;-65
2023/02/07 09:54:45;;;;;;;30.02;14.88;;;2.00;94.60;;;;;;5072193;28;20044;-65
2023/02/07 09:57:21;;;;;;;28.20;14.77;;;1.90;92.40;;;;;;5081723;28;20025;-65
2023/02/07 09:59:53;;;;;;;19.90;11.45;;;2.00;94.40;;;;;;5052273;28;20064;-65
2023/02/07 10:02:36;;;;;;;22.65;13.30;;;2.00;92.80;;;;;;5080982;28;20017;-68
2023/02/07 10:05:13;;;;;;;24.58;13.60;;;2.00;91.40;;;;;;5072000;28;20364;-65
2023/02/07 10:07:38;;;;;;;28.48;14.48;;;2.10;93.10;;;;;;5074810;28;20082;-65
2023/02/07 10:10:31;;;;;;;26.83;13.95;;;2.10;90.80;;;;;;5090398;28;20028;-65
2023/02/07 10:13:06;;;;;;;26.80;14.25;;;2.10;91.90;;;;;;5063508;28;20355;-66
2023/02/07 10:16:16;;;;;;;24.08;13.38;;;2.10;90.70;;;;;;5054370;28;20024;-64
2023/02/07 10:19:18;;;;;;;23.77;12.60;;;2.20;86.80;;;;;;5073130;28;20028;-66
2023/02/07 10:21:55;;;;;;;24.08;12.05;;;2.20;84.00;;;;;;5046319;28;20041;-65
2023/02/07 10:24:42;;;;;;;23.67;12.48;;;2.10;84.30;;;;;;5049571;28;20501;-66
2023/02/07 10:27:13;;;;;;;26.83;13.32;;;2.10;84.20;;;;;;5049930;28;20025;-68
2023/02/07 10:29:58;;;;;;;19.65;11.55;;;2.10;85.00;;;;;;5089928;28;20040;-65
2023/02/07 10:32:26;;;;;;;22.80;12.25;;;2.00;86.60;;;;;;5048813;28;20021;-67
2023/02/07 10:34:55;;;;;;;26.77;12.98;;;2.00;86.10;;;;;;5055058;28;20051;-67
2023/02/07 10:37:24;;;;;;;23.85;12.23;;;2.00;88.10;;;;;;5091138;28;20024;-65
2023/02/07 10:39:59;;;;;;;23.08;12.30;;;2.10;85.80;;;;;;5085517;28;20025;-65
2023/02/07 10:42:27;;;;;;;23.20;12.32;;;2.10;86.60;;;;;;5070808;28;20015;-65
2023/02/07 10:44:53;;;;;;;28.40;13.02;;;2.10;87.10;;;;;;5080890;28;20194;-65
2023/02/07 10:47:19;;;;;;;24.27;12.20;;;2.10;86.10;;;;;;5063528;28;20123;-66
2023/02/07 10:49:50;;;;;;;23.42;11.32;;;2.10;86.00;;;;;;5088819;28;20613;-65
2023/02/07 10:52:30;;;;;;;22.20;12.10;;;2.00;86.80;;;;;;5090768;28;20039;-65
2023/02/07 10:54:59;;;;;;;23.75;12.75;;;2.00;84.10;;;;;;5048704;28;20021;-64
2023/02/07 10:57:26;;;;;;;27.83;13.32;;;1.90;84.50;;;;;;5065037;28;20021;-66
2023/02/07 11:00:03;;;;;;;29.23;14.38;;;1.90;78.00;;;;;;5082682;28;20028;-66
2023/02/07 11:02:32;;;;;;;26.30;13.23;;;1.90;75.20;;;;;;5086973;28;20024;-65
2023/02/07 11:05:14;;;;;;;28.83;14.63;;;1.80;76.20;;;;;;5078779;28;20116;-65
2023/02/07 11:07:41;;;;;;;26.15;12.85;;;1.90;75.80;;;;;;5072612;28;20060;-58
2023/02/07 11:10:22;;;;;;;28.05;13.27;;;1.80;78.80;;;;;;5089612;28;20039;-52
2023/02/07 11:12:53;;;;;;;24.88;12.35;;;1.90;81.70;;;;;;5067288;28;20057;-61
2023/02/07 11:15:25;;;;;;;27.08;12.75;;;1.90;80.30;;;;;;5069336;28;20036;-60
2023/02/07 11:17:54;;;;;;;27.40;14.43;;;1.90;79.40;;;;;;5049681;28;20040;-60
2023/02/07 11:20:26;;;;;;;27.05;13.07;;;1.90;73.50;;;;;;5064739;28;20059;-61
2023/02/07 11:22:53;;;;;;;27.77;15.00;;;1.90;77.30;;;;;;5085138;28;20460;-61
2023/02/07 11:25:25;;;;;;;24.50;12.60;;;1.90;78.20;;;;;;5076102;28;20025;-61
2023/02/07 11:27:52;;;;;;;24.52;11.35;;;1.90;80.00;;;;;;5058263;28;20046;-60
2023/02/07 11:30:21;;;;;;;23.77;11.40;;;2.00;79.30;;;;;;5076656;28;20127;-59
2023/02/07 11:32:57;;;;;;;20.80;10.65;;;1.90;72.70;;;;;;5187122;22;20064;-61
2023/02/07 11:35:23;;;;;;;22.27;11.90;;;2.00;75.80;;;;;;5119800;22;20138;-54
2023/02/07 11:38:14;;;;;;;24.52;11.10;;;1.90;75.70;;;;;;5108762;28;20115;-51
2023/02/07 11:40:42;;;;;;;21.92;11.07;;;2.00;77.50;;;;;;5093876;28;20088;-55
2023/02/07 11:43:08;;;;;;;23.33;11.18;;;2.00;78.20;;;;;;5108761;28;20073;-50
2023/02/07 11:45:35;;;;;;;20.00;10.07;;;2.10;77.00;;;;;;5118534;22;20048;-79
2023/02/07 11:48:01;;;;;;;18.35;9.10;;;2.10;76.20;;;;;;5091545;28;20032;-78
2023/02/07 11:50:31;;;;;;;24.20;12.38;;;2.10;74.70;;;;;;5108552;28;20043;-77
2023/02/07 11:52:59;;;;;;;27.45;11.73;;;2.10;73.90;;;;;;5090495;28;20028;-78
2023/02/07 11:55:38;;;;;;;24.52;12.07;;;2.10;75.70;;;;;;5098442;28;20047;-78
2023/02/07 11:58:22;;;;;;;23.20;11.18;;;2.10;75.50;;;;;;5070507;28;20020;-78
2023/02/07 12:00:48;;;;;;;20.40;9.73;;;2.10;74.30;;;;;;5089145;28;20054;-75
2023/02/07 12:03:24;;;;;;;21.48;11.35;;;2.10;73.00;;;;;;5089837;28;20507;-57
2023/02/07 12:06:14;;;;;;;20.00;10.23;;;2.10;74.70;;;;;;5099924;28;20032;-55
2023/02/07 12:08:40;;;;;;;21.23;10.50;;;2.10;72.00;;;;;;5067500;28;20037;-57
2023/02/07 12:11:12;;;;;;;20.33;10.65;;;2.10;70.70;;;;;;5092894;28;20122;-58
2023/02/07 12:13:43;;;;;;;20.63;10.65;;;2.20;71.80;;;;;;5068919;28;20498;-57
2023/02/07 12:16:33;;;;;;;21.35;11.20;;;2.30;67.50;;;;;;5080647;28;20410;-54
2023/02/07 12:19:05;;;;;;;23.00;11.50;;;2.30;70.00;;;;;;5068705;28;20233;-57
2023/02/07 12:21:40;;;;;;;22.85;11.32;;;2.30;70.80;;;;;;5083489;28;20036;-57
2023/02/07 12:24:19;;;;;;;24.17;10.27;;;2.30;71.80;;;;;;5068574;28;20035;-54
2023/02/07 12:26:51;;;;;;;22.05;11.40;;;2.30;68.20;;;;;;5085384;28;20035;-57
2023/02/07 12:29:31;;;;;;;21.20;11.98;;;2.30;65.30;;;;;;5068450;28;20047;-57
2023/02/07 12:32:11;;;;;;;23.17;12.35;;;2.30;59.90;;;;;;5068394;28;20395;-57
2023/02/07 12:34:47;;;;;;;19.65;10.82;;;2.40;64.60;;;;;;5068086;28;20518;-56
2023/02/07 12:37:27;;;;;;;17.13;9.05;;;2.40;67.10;;;;;;5108763;28;20065;-56
2023/02/07 12:40:20;;;;;;;20.35;9.55;;;2.40;67.80;;;;;;5072556;28;20031;-57
2023/02/07 12:42:56;;;;;;;21.73;10.85;;;2.50;66.30;;;;;;5108902;28;20077;-56
2023/02/07 12:46:02;;;;;;;21.90;10.18;;;2.50;59.30;;;;;;5090090;28;20048;-57
2023/02/07 12:48:46;;;;;;;21.05;9.77;;;2.60;63.10;;;;;;5083017;28;20035;-57
2023/02/07 12:51:22;;;;;;;19.35;10.05;;;2.60;65.20;;;;;;5088537;28;20043;-57